Aiguafreda





Hora UTC 19:35
Temperatura 20.3 ºC
Sòl 15 cm 19.1 ºC
Humitat 70.0 %
Pressió 1018.8 hPa
Pluja 0.0 mm
Velocitat vent 0.0 km/h
Direcció vent NNE
Radiació solar 0.0 W/m²

Dades diàries 2022-08-19



Hora UTC (hivern +1h; estiu +2h)
Temperatura (ºC) Humitat (%) Pressió (hPa) Velocitat vent (km/h) Precipitació (mm) Radiació solar (W/m²)
Hora UTC Aire Sòl 15 cm Humitat Pressió Vel. Dir. Vel. Max Dir. Intent. màx 5 min. Rad. Sol.
00:05 14.3 13.6 96.9 1016.9 0.3 NE 0.3 NNE 0.0 0.0
00:10 14.4 13.6 96.9 1016.9 0.0 NNE 0.0 N 0.0 0.0
00:15 14.4 13.8 97.0 1016.8 0.3 NNE 6.1 N 0.0 0.0
00:20 14.6 14.0 97.0 1016.9 1.7 E 6.1 NE 0.0 0.0
00:25 14.7 14.2 97.1 1016.8 1.3 ENE 8.8 ESE 0.0 0.0
00:30 14.8 14.3 97.1 1016.9 1.9 ENE 8.8 NE 0.0 0.0
00:35 14.9 14.4 97.0 1016.9 1.1 NE 6.1 NE 0.0 0.0
00:40 14.9 14.5 97.0 1016.9 1.0 E 6.1 ENE 0.0 0.0
00:45 14.9 14.5 96.8 1017.0 0.9 ESE 6.1 ESE 0.0 0.0
00:50 14.9 14.5 96.9 1017.0 1.4 ENE 6.1 ENE 0.0 0.0
00:55 15.0 14.6 96.9 1016.8 1.3 NE 6.1 ENE 0.0 0.0
01:00 15.0 14.5 96.8 1016.9 1.1 ESE 6.1 S 0.0 0.0
01:05 15.0 14.6 96.8 1016.8 0.5 E 6.1 E 0.0 0.0
01:10 14.9 14.5 96.6 1016.7 0.8 ESE 6.1 E 0.0 0.0
01:15 14.7 14.3 96.3 1016.9 0.1 ESE 3.4 ESE 0.0 0.0
01:20 14.7 14.3 96.4 1016.8 0.0 NNE 0.0 E 0.0 0.0
01:25 14.5 14.0 96.1 1016.7 1.6 NNE 6.1 NE 0.0 0.0
01:30 14.4 13.8 96.1 1016.7 1.0 NE 6.1 NE 0.0 0.0
01:35 14.4 13.8 96.3 1016.7 1.3 NE 8.8 NE 0.0 0.0
01:40 14.4 13.8 96.5 1016.6 2.2 NE 8.8 ENE 0.0 0.0
01:45 14.5 13.9 96.7 1016.8 2.3 NE 8.8 E 0.0 0.0
01:50 14.6 14.0 96.7 1016.9 1.5 ENE 8.8 ENE 0.0 0.0
01:55 14.5 14.0 96.5 1016.8 3.3 NE 11.5 ENE 0.0 0.0
02:00 14.5 13.8 96.5 1017.0 3.2 NE 8.8 SSW 0.0 0.0
02:05 14.4 13.8 96.5 1016.9 3.4 NE 8.8 ENE 0.0 0.0
02:10 14.4 13.8 96.6 1016.9 4.3 NE 11.5 NE 0.0 0.0
02:15 14.4 13.7 96.6 1017.0 5.3 NE 11.5 NE 0.0 0.0
02:20 14.4 13.7 96.6 1016.9 2.8 NE 11.5 E 0.0 0.0
02:25 14.3 13.7 96.5 1016.9 1.1 NNE 6.1 NNW 0.0 0.0
02:30 14.2 13.6 96.4 1016.9 2.2 ENE 14.2 NNE 0.0 0.0
02:35 14.1 13.5 96.4 1017.1 3.8 ENE 8.8 NE 0.0 0.0
02:40 14.1 13.4 96.4 1017.2 4.2 NE 14.2 NNE 0.0 0.0
02:45 14.1 13.4 96.5 1017.2 2.4 NE 11.5 NE 0.0 0.0
02:50 14.0 13.4 96.5 1017.1 2.6 NE 8.8 ENE 0.0 0.0
02:55 14.0 13.4 96.5 1017.0 3.0 NE 11.5 ENE 0.0 0.0
03:00 14.0 13.4 96.6 1017.2 3.2 NE 11.5 NNE 0.0 0.0
03:05 14.0 13.4 96.5 1017.1 3.0 NE 11.5 ENE 0.0 0.0
03:10 13.9 13.3 96.5 1017.1 0.2 NE 3.4 ESE 0.0 0.0
03:15 13.9 13.2 96.4 1017.1 2.2 NE 8.8 ENE 0.0 0.0
03:20 13.7 13.0 96.2 1017.1 1.7 ENE 8.8 NE 0.0 0.0
03:25 13.6 12.9 96.3 1017.1 1.8 ENE 6.1 ENE 0.0 0.0
03:30 13.6 12.9 96.3 1017.1 3.3 NE 8.8 NE 0.0 0.0
03:35 13.5 12.9 96.4 1017.1 0.8 NE 6.1 ENE 0.0 0.0
03:40 13.6 12.9 96.5 1017.3 0.0 NNE 0.0 ENE 0.0 0.0
03:45 13.7 12.9 96.7 1017.3 0.0 NNE 0.0 ENE 0.0 0.0
03:50 13.7 13.0 96.6 1017.4 3.3 NE 14.2 NNE 0.0 0.0
03:55 13.6 12.9 96.5 1017.3 4.6 NE 11.5 NE 0.0 0.0
04:00 13.5 12.9 96.6 1017.4 4.8 NE 11.5 NE 0.0 0.0
04:05 13.6 13.0 96.7 1017.4 5.4 ENE 14.2 NNE 0.0 0.0
04:10 13.6 13.0 96.8 1017.3 1.8 NE 8.8 NE 0.0 0.0
04:15 13.6 13.0 96.7 1017.4 0.6 ESE 6.1 NE 0.0 0.0
04:20 13.5 12.9 96.7 1017.4 3.0 ENE 8.8 N 0.0 0.0
04:25 13.5 12.9 96.8 1017.4 3.7 NE 8.8 NE 0.0 0.0
04:30 13.4 12.8 96.7 1017.4 1.1 NE 8.8 WNW 0.0 0.0
04:35 13.4 12.7 96.7 1017.5 1.5 ENE 8.8 NNE 0.0 0.0
04:40 13.4 12.8 96.8 1017.5 0.6 E 6.1 S 0.0 0.0
04:45 13.4 12.8 96.9 1017.5 2.2 ENE 14.2 E 0.0 0.0
04:50 13.4 12.8 96.9 1017.5 5.4 NE 16.9 ENE 0.0 0.0
04:55 13.4 12.7 96.9 1017.4 4.2 NE 14.2 NNE 0.0 0.0
05:00 13.3 12.7 96.9 1017.5 1.4 E 6.1 NE 0.0 0.0
05:05 13.2 12.6 96.8 1017.7 1.2 NE 8.8 ENE 0.0 0.0
05:10 13.2 12.6 96.9 1017.6 2.8 ENE 11.5 NE 0.0 0.0
05:15 13.2 12.6 96.9 1017.6 2.8 ENE 8.8 NNW 0.0 0.0
05:20 13.2 12.6 96.9 1017.7 1.8 ENE 8.8 ENE 0.0 0.0
05:25 13.1 12.6 96.9 1017.9 1.1 E 6.1 NNE 0.0 0.0
05:30 13.2 12.7 97.0 1017.9 2.5 ESE 8.8 E 0.0 0.0
05:35 13.2 12.8 97.1 1018.0 1.3 E 8.8 ENE 0.0 0.0
05:40 13.2 12.8 97.0 1018.2 2.8 ENE 11.5 ENE 0.0 0.0
05:45 13.3 12.9 97.1 1018.2 3.1 NE 8.8 NE 0.0 0.0
05:50 13.4 13.1 97.1 1018.2 4.2 ENE 8.8 NE 0.0 0.0
05:55 13.4 13.2 96.9 1018.3 3.8 NE 11.5 NNE 0.0 0.0
06:00 13.5 13.4 96.9 1018.3 1.6 E 8.8 NE 0.0 0.0
06:05 13.7 13.7 96.8 1018.2 0.5 SSE 6.1 SE 0.0 0.0
06:10 13.8 13.7 96.6 1018.2 0.7 ENE 8.8 E 0.0 0.0
06:15 13.8 13.7 96.4 1018.2 1.4 SSE 6.1 ESE 0.0 0.0
06:20 13.9 13.8 96.3 1018.3 2.7 ESE 11.5 E 0.0 0.0
06:25 13.8 13.7 96.0 1018.5 2.5 SE 8.8 ESE 0.0 0.0
06:30 13.8 13.6 95.9 1018.6 2.3 SSE 8.8 S 0.0 0.0
06:35 13.7 13.6 95.8 1018.5 0.9 ENE 6.1 NE 0.0 0.0
06:40 13.9 13.7 95.8 1018.6 0.5 ESE 6.1 SSE 0.0 0.0
06:45 14.0 13.7 95.5 1018.7 2.4 NE 11.5 NE 0.0 0.0
06:50 14.0 13.5 95.1 1018.7 5.4 NE 14.2 N 0.0 0.0
06:55 13.9 13.3 94.9 1018.7 6.7 NE 14.2 NE 0.0 0.0
07:00 13.9 13.4 95.0 1018.6 6.4 NE 14.2 NNE 0.0 0.0
07:05 14.0 13.4 94.8 1018.6 5.9 NE 14.2 N 0.0 0.0
07:10 14.1 13.7 95.0 1018.6 5.0 E 11.5 E 0.0 0.0
07:15 14.3 13.8 94.5 1018.6 2.7 ESE 8.8 ESE 0.0 0.0
07:20 14.5 13.9 94.3 1018.6 0.7 NE 6.1 ENE 0.0 0.0
07:25 15.0 14.0 93.5 1018.7 4.8 NE 14.2 N 0.0 0.0
07:30 15.5 14.1 91.8 1018.4 7.2 NE 16.9 NNE 0.0 0.0
07:35 16.0 14.3 89.3 1018.5 8.5 NE 19.6 NE 0.0 0.0
07:40 16.2 14.4 87.7 1018.6 10.1 NE 25.0 NNE 0.0 0.0
07:45 16.3 14.9 87.2 1018.6 7.4 ENE 16.9 E 0.0 0.0
07:50 16.7 15.7 85.9 1018.4 7.0 NE 16.9 N 0.0 0.0
07:55 17.0 16.6 84.7 1018.3 7.4 NE 14.2 N 0.0 0.0
08:00 17.3 17.6 83.8 1018.4 5.2 NNE 11.5 ENE 0.0 0.0
08:05 17.7 18.6 82.1 1018.4 6.4 N 14.2 NE 0.0 0.0
08:10 18.2 19.6 81.8 1018.4 4.0 NE 8.8 NW 0.0 0.0
08:15 18.8 20.4 79.2 1018.4 6.5 NE 11.5 N 0.0 0.0
08:20 19.0 20.5 78.0 1018.4 7.6 ENE 19.6 NE 0.0 0.0
08:25 19.2 21.1 77.9 1018.5 7.0 NE 16.9 ENE 0.0 0.0
08:30 19.6 21.7 77.1 1018.3 5.7 NE 14.2 NNW 0.0 0.0
08:35 20.0 22.3 75.9 1018.3 4.4 NE 11.5 NNE 0.0 0.0
08:40 20.3 22.7 74.7 1018.5 6.5 NE 11.5 NNE 0.0 0.0
08:45 20.8 23.5 73.1 1018.5 5.4 NE 14.2 NNE 0.0 0.0
08:50 21.0 23.5 71.0 1018.5 6.5 NE 14.2 ENE 0.0 0.0
08:55 21.2 24.2 70.0 1018.4 5.9 ENE 14.2 ENE 0.0 14.5
09:00 21.5 24.4 68.3 1018.4 3.4 E 14.2 NNE 0.0 51.5
09:05 21.6 24.4 67.4 1018.4 4.8 E 14.2 ESE 0.0 80.2
09:10 21.9 24.7 64.9 1018.3 6.3 ENE 14.2 NE 0.0 173.1
09:15 22.1 25.2 64.6 1018.5 5.1 ENE 14.2 ENE 0.0 309.2
09:20 22.4 25.5 62.1 1018.4 4.8 ENE 11.5 ENE 0.0 512.3
09:25 22.6 26.1 60.4 1018.4 4.2 S 8.8 S 0.0 490.8
09:30 22.9 26.8 59.6 1018.3 2.5 ESE 8.8 S 0.0 509.1
09:35 23.4 27.5 57.4 1018.2 4.8 ENE 14.2 ENE 0.0 539.3
09:40 23.6 27.3 55.5 1018.3 7.8 NE 16.9 NE 0.0 517.7
09:45 23.5 27.3 54.6 1018.3 6.9 NE 16.9 N 0.0 654.5
09:50 23.6 27.1 53.8 1018.3 7.8 NE 14.2 NNW 0.0 643.9
09:55 23.7 27.4 52.3 1018.2 6.9 NE 14.2 NNE 0.0 403.4
10:00 24.1 27.8 51.7 1018.2 7.5 NE 14.2 N 0.0 371.4
10:05 24.2 27.8 49.8 1018.3 7.3 NNE 14.2 N 0.0 351.4
10:10 24.4 28.2 48.8 1018.3 6.5 NNE 14.2 NE 0.0 320.8
10:15 24.7 28.9 49.3 1018.2 3.9 NE 11.5 NE 0.0 560.8
10:20 25.0 28.9 47.2 1018.1 5.8 NNE 14.2 NNE 0.0 580.6
10:25 25.4 29.6 45.1 1017.9 3.6 NNE 11.5 NNW 0.0 259.4
10:30 25.6 29.9 44.0 1018.1 6.2 NNE 14.2 N 0.0 174.1
10:35 26.0 30.1 43.1 1018.0 2.8 NE 8.8 NE 0.0 180.0
10:40 26.5 31.2 42.5 1018.0 4.0 NNE 11.5 NE 0.0 101.8
10:45 26.8 31.2 43.3 1018.0 3.6 NNE 11.5 N 0.0 84.1
10:50 26.8 31.2 43.5 1018.0 4.2 NNE 8.8 E 0.0 226.7
10:55 26.9 31.0 43.9 1018.0 6.2 NE 14.2 NNE 0.0 219.5
11:00 27.2 31.2 43.8 1017.8 6.5 NE 14.2 NE 0.0 296.1
11:05 27.6 31.9 43.1 1017.8 4.4 NE 16.9 ENE 0.0 182.2
11:10 28.1 33.1 41.9 1017.8 3.7 NNE 8.8 NNE 0.0 175.6
11:15 28.0 32.9 41.9 1017.8 5.5 NE 11.5 NNE 0.0 176.1
11:20 27.9 32.9 39.5 1017.8 5.1 NE 11.5 NNE 0.0 198.6
11:25 28.0 33.0 39.1 1017.8 5.5 ENE 14.2 ENE 0.0 235.2
11:30 28.3 33.5 36.7 1017.8 5.9 NNE 14.2 NE 0.0 175.7
11:35 28.4 33.4 35.9 1017.6 3.6 ENE 8.8 ENE 0.0 179.8
11:40 28.7 34.1 35.5 1017.6 2.8 W 8.8 WSW 0.0 200.1
11:45 28.7 34.3 35.6 1017.7 1.9 WSW 8.8 SSE 0.0 285.0
11:50 28.6 34.1 34.9 1017.6 4.7 NNW 11.5 NE 0.0 818.0
11:55 28.6 34.3 35.1 1017.6 1.9 S 8.8 SSW 0.0 697.6
12:00 28.9 33.7 35.4 1017.3 6.0 S 11.5 S 0.0 371.5
12:05 28.4 33.8 37.0 1017.4 2.6 SSE 8.8 ESE 0.0 684.1
12:10 28.7 34.0 38.7 1017.5 6.1 SE 14.2 SSE 0.0 411.9
12:15 28.5 33.7 40.7 1017.5 10.0 SSE 19.6 SE 0.0 93.8
12:20 28.3 33.1 41.5 1017.4 10.6 SSE 19.6 SSE 0.0 43.2
12:25 28.1 32.9 41.8 1017.6 9.0 SE 19.6 SSE 0.0 1.7
12:30 28.0 33.1 41.6 1017.4 8.6 S 19.6 SE 0.0 0.0
12:35 28.4 33.6 40.7 1017.4 7.7 S 16.9 SSW 0.0 0.0
12:40 28.2 33.5 40.5 1017.4 6.5 S 14.2 SSE 0.0 0.0
12:45 28.5 33.7 40.6 1017.3 8.6 SE 16.9 SE 0.0 0.8
12:50 28.9 34.3 40.0 1017.4 8.7 SSE 16.9 SSE 0.0 1.8
12:55 28.6 33.6 40.4 1017.4 9.4 SSE 16.9 SSE 0.0 108.8
13:00 28.8 34.0 40.3 1017.4 7.1 S 14.2 SSE 0.0 63.3
13:05 28.7 33.7 39.9 1017.3 10.6 SSE 19.6 SSE 0.0 78.0
13:10 28.4 33.0 40.3 1017.2 11.2 SSE 19.6 SSE 0.0 325.5
13:15 28.5 32.9 40.1 1017.3 10.8 SSE 19.6 SSE 0.0 15.0
13:20 28.6 32.9 40.0 1017.3 12.7 SE 22.3 SSE 0.0 0.3
13:25 28.6 32.7 39.8 1017.2 12.8 SSE 22.3 SSE 0.0 41.6
13:30 28.8 33.3 39.3 1017.2 10.5 S 25.0 S 0.0 54.2
13:35 28.7 33.1 39.4 1017.1 11.4 SE 19.6 SE 0.0 70.1
13:40 28.7 33.1 38.9 1017.2 11.8 SSE 22.3 SE 0.0 5.1
13:45 28.7 32.7 39.2 1017.1 11.4 SE 27.7 ESE 0.0 0.0
13:50 28.7 32.3 40.1 1017.1 14.8 SE 27.7 E 0.0 0.0
13:55 28.6 32.0 41.5 1017.2 12.5 SE 25.0 SE 0.0 0.0
14:00 28.2 31.8 43.3 1017.1 12.9 SSE 27.7 SSE 0.0 0.0
14:05 27.7 31.4 45.5 1017.4 15.8 SSE 30.4 SSE 0.0 0.0
14:10 27.6 31.0 47.2 1017.4 13.6 SSE 25.0 ESE 0.0 0.0
14:15 27.5 30.9 47.9 1017.5 12.6 SSE 25.0 SSE 0.0 0.0
14:20 27.5 31.1 48.2 1017.3 10.7 SSE 19.6 SSE 0.0 0.0
14:25 27.8 31.6 47.9 1017.4 9.3 SSE 19.6 S 0.0 0.0
14:30 27.7 31.4 47.6 1017.4 12.5 SSE 22.3 SE 0.0 0.0
14:35 27.3 30.6 48.3 1017.4 12.2 SSE 25.0 SSE 0.0 0.0
14:40 27.2 30.9 48.9 1017.5 13.2 SSE 27.7 S 0.0 0.0
14:45 27.4 30.8 48.2 1017.3 11.2 SE 22.3 SSE 0.0 0.0
14:50 27.7 31.3 47.8 1017.2 10.3 SSE 19.6 SSE 0.0 0.0
14:55 27.5 30.8 47.7 1017.4 11.8 SSE 22.3 SSE 0.0 0.0
15:00 27.4 30.8 47.8 1017.3 12.0 SSE 22.3 SSE 0.0 0.0
15:05 27.6 31.1 47.3 1017.2 12.6 SSE 22.3 SSE 0.0 0.0
15:10 27.4 30.6 47.8 1017.1 11.7 SSE 22.3 E 0.0 0.0
15:15 27.4 30.5 48.4 1017.1 13.0 SSE 22.3 SSE 0.0 0.0
15:20 27.3 30.6 49.5 1017.3 11.2 SE 22.3 SE 0.0 0.0
15:25 27.3 30.5 48.8 1017.4 12.4 SSE 27.7 SE 0.0 0.0
15:30 27.3 30.3 48.9 1017.3 11.7 SSE 22.3 SSE 0.0 0.0
15:35 27.0 30.3 49.6 1017.2 10.7 SSE 22.3 SSE 0.0 0.0
15:40 26.9 30.0 49.9 1017.2 12.1 SSE 25.0 SSE 0.0 0.0
15:45 26.6 29.7 50.5 1017.4 11.5 S 22.3 SSW 0.0 0.0
15:50 26.8 29.8 50.0 1017.2 12.8 SE 27.7 SE 0.0 0.0
15:55 26.6 29.3 50.4 1017.1 12.8 SSE 22.3 S 0.0 0.0
16:00 26.4 28.9 50.3 1017.3 12.5 SSE 25.0 SSE 0.0 0.0
16:05 26.3 28.8 50.3 1017.4 13.8 SSE 25.0 W 0.0 0.0
16:10 26.5 29.1 50.3 1017.3 9.7 S 19.6 SSE 0.0 0.0
16:15 26.6 29.0 49.6 1017.1 9.7 SSE 19.6 SE 0.0 0.0
16:20 26.4 28.6 49.9 1017.3 11.3 SSE 16.9 SE 0.0 0.0
16:25 26.1 28.1 49.6 1017.2 11.8 SSE 22.3 SSE 0.0 0.0
16:30 25.9 27.8 49.7 1017.4 14.2 SSE 22.3 SSE 0.0 0.0
16:35 25.7 27.5 50.0 1017.4 10.3 SSE 19.6 SSE 0.0 0.0
16:40 25.9 27.6 49.1 1017.3 9.5 S 16.9 SE 0.0 0.0
16:45 26.1 27.7 48.9 1017.3 8.3 S 16.9 SSW 0.0 0.0
16:50 26.2 27.7 48.3 1017.4 7.5 S 16.9 SSE 0.0 0.0
16:55 25.9 27.5 48.3 1017.3 10.9 SSE 19.6 S 0.0 0.0
17:00 25.7 27.2 49.3 1017.4 9.5 SSE 16.9 SE 0.0 0.0
17:05 25.7 27.1 49.4 1017.3 9.1 SSE 19.6 SSE 0.0 0.0
17:10 25.9 27.2 48.9 1017.4 8.8 SSE 16.9 SSW 0.0 0.0
17:15 25.7 26.9 49.2 1017.4 11.2 SSE 19.6 SE 0.0 0.0
17:20 25.3 26.4 50.1 1017.5 11.3 SSE 16.9 SE 0.0 0.0
17:25 25.2 26.3 50.5 1017.4 11.9 SSE 22.3 S 0.0 0.0
17:30 24.9 25.9 51.3 1017.4 13.0 SSE 22.3 S 0.0 0.0
17:35 24.6 25.3 52.1 1017.5 12.2 SSE 25.0 SSE 0.0 0.0
17:40 24.5 24.8 52.5 1017.6 9.6 S 19.6 SSE 0.0 0.0
17:45 24.4 24.2 52.8 1017.4 8.7 S 16.9 SSE 0.0 0.0
17:50 24.2 23.9 53.4 1017.3 6.4 S 14.2 S 0.0 0.0
17:55 24.1 23.6 53.6 1017.6 8.1 S 16.9 S 0.0 0.0
18:00 23.9 23.3 54.2 1017.7 7.7 S 14.2 SSE 0.0 0.0
18:05 23.8 23.1 55.0 1017.7 6.8 S 16.9 S 0.0 0.0
18:10 23.6 22.9 55.5 1017.9 8.0 SSW 16.9 SSW 0.0 0.0
18:15 23.4 22.7 55.9 1017.7 7.0 S 11.5 SW 0.0 0.0
18:20 23.3 22.5 56.4 1017.8 6.1 S 11.5 SSW 0.0 0.0
18:25 23.2 22.4 56.4 1017.9 6.2 SSE 11.5 SSE 0.0 0.0
18:30 23.1 22.3 56.7 1018.1 6.2 SSE 14.2 SSE 0.0 0.0
18:35 23.0 22.1 57.7 1018.1 5.1 SE 8.8 S 0.0 0.0
18:40 22.8 21.9 58.1 1018.1 4.6 SSE 8.8 SSE 0.0 0.0
18:45 22.7 21.7 58.6 1018.2 3.2 SSE 6.1 SSW 0.0 0.0
18:50 22.6 21.3 60.2 1018.3 0.1 ESE 3.4 ESE 0.0 0.0
18:55 22.3 21.0 62.0 1018.2 0.0 NNE 0.0 ESE 0.0 0.1
19:00 21.9 20.7 63.2 1018.5 0.0 NNE 0.0 ESE 0.0 0.0
19:05 21.4 20.4 64.9 1018.4 0.0 NE 3.4 NE 0.0 0.0
19:10 21.1 20.1 65.8 1018.6 1.0 ENE 6.1 E 0.0 0.0
19:15 20.9 19.9 66.1 1018.6 0.3 NE 3.4 NE 0.0 0.0
19:20 20.8 19.7 66.3 1018.6 0.0 NNE 0.0 E 0.0 0.0
19:25 20.8 19.5 67.6 1018.6 0.0 NNE 0.0 E 0.0 0.0
19:30 20.5 19.3 69.2 1018.9 0.0 NNE 0.0 N 0.0 0.0
19:35 20.3 19.1 70.0 1018.8 0.0 NNE 0.0 NNW 0.0 0.0
Màxima 29.0 34.3 97.1 1018.9 15.8 SSE 30.4 SSE 0.0 818.0
Mínima 13.1 12.6 34.9 1016.6
Total 0.0